Huddleston, Arkansas
Current Conditions -  °F | °C
As of 3:53 PM on Thursday 18 Dec 2014 (Local Time) from KMWT Reporting Station
Overcast Overcast  
Wind Chill: 44°   Ceiling: 500
Heat Index: 44°   Visibility: 10mi
Dew Point: 41°   Wind: 0mph
Humidity: 89%   Direction: NA
Pressure: 30.12"   Gusts: NA
Location:  34.6364°N, 93.829°W
Report Text: KMWT 182153Z AUTO 00000KT 10SM OVC005 07/05 A3012 RMK AO2 SLP208 T00670050
Loading
Personal Weather Stations






























Interactive Weather Map New forecast layout! Learn more

10-Day Weather Forecast

Advertisements
Track Severe Weather on mobile